Ossian, Indiana
Current Conditions -  °F | °C
As of 11:54 AM on Thursday 18 Dec 2014 (Local Time) from KFWA Reporting Station
Light Snow Light Snow  
Wind Chill: 20°   Ceiling: 1700
Heat Index: 28°   Visibility: 8mi
Dew Point: 22°   Wind: 8mph
Humidity: 78%   Direction: 250°WSW
Pressure: 30.26"   Gusts: NA
Location:  40.88°N, 85.17°W
Report Text: KFWA 181654Z 25007KT 8SM -SN OVC017 M02/M06 A3026 RMK AO2 SLP259 P0000 T10221056
Loading
Personal Weather Stations






























Interactive Weather Map New forecast layout! Learn more

10-Day Weather Forecast

Advertisements
Track Severe Weather on mobile